This is the latest recevied weather packets stored in our database for station/object KD8ZLZ-13. If no packets are shown the sender has not sent any weather packets the latest 10 day(s).
| Time | Temp. | Humidity | Pressure | Rain* | Wind** | Luminosity | Snow |
|---|---|---|---|---|---|---|---|
| 1777745591 | 7.78° C | 40% | 1019 hPa | 0 mm | - | 293 W/m² | - |
| 1777744991 | 7.78° C | 39% | 1019 hPa | 0 mm | - | 280 W/m² | - |
| 1777744391 | 7.78° C | 41% | 1019 hPa | 0 mm | - | 430 W/m² | - |
| 1777743791 | 7.78° C | 41% | 1019 hPa | 0 mm | - | 294 W/m² | - |
| 1777743191 | 7.78° C | 41% | 1019 hPa | 0 mm | - | 277 W/m² | - |
| 1777742591 | 8.33° C | 40% | 1019 hPa | 0 mm | - | 425 W/m² | - |
| 1777741991 | 7.78° C | 42% | 1019 hPa | 0 mm | - | 325 W/m² | - |
| 1777741391 | 7.78° C | 39% | 1019.3 hPa | 0 mm | - | 405 W/m² | - |
| 1777740791 | 7.22° C | 42% | 1019.3 hPa | 0 mm | - | 315 W/m² | - |
| 1777740191 | 7.22° C | 41% | 1019.3 hPa | 0 mm | - | 350 W/m² | - |
| 1777739591 | 7.22° C | 41% | 1019.3 hPa | 0 mm | - | 317 W/m² | - |
| 1777738991 | 7.22° C | 41% | 1019.3 hPa | 0 mm | - | 239 W/m² | - |
| 1777738391 | 7.22° C | 41% | 1019.3 hPa | 0 mm | - | 600 W/m² | - |
| 1777737791 | 7.22° C | 43% | 1019 hPa | 0 mm | - | 242 W/m² | - |
| 1777737191 | 6.67° C | 42% | 1019 hPa | 0 mm | - | 669 W/m² | - |
| 1777736591 | 6.67° C | 44% | 1019 hPa | 0 mm | - | 211 W/m² | - |
| 1777735991 | 6.67° C | 45% | 1019 hPa | 0 mm | - | 270 W/m² | - |
| 1777735391 | 6.67° C | 45% | 1019 hPa | 0 mm | - | 644 W/m² | - |
| 1777734191 | 6.67° C | 50% | 1019 hPa | 0 mm | - | 293 W/m² | - |
| 1777733591 | 6.67° C | 49% | 1019 hPa | 0 mm | - | 783 W/m² | - |
| 1777732991 | 5.56° C | 50% | 1019 hPa | 0 mm | - | 319 W/m² | - |
| 1777732391 | 6.11° C | 52% | 1019 hPa | 0 mm | - | 335 W/m² | - |
| 1777731791 | 6.11° C | 51% | 1019 hPa | 0 mm | - | 288 W/m² | - |
| 1777731191 | 5.56° C | 50% | 1019 hPa | 0 mm | - | 247 W/m² | - |
| 1777730591 | 6.67° C | 49% | 1019 hPa | 0 mm | - | 623 W/m² | - |
* Rain latest hour (hover to see other rain measurements)
** Current wind speed in m/s (hover to see current wind gust speed)